Time;durP1;ratioP1;P1;durP2;ratioP2;P2;SDS_P1;SDS_P2;PMS_P1;PMS_P2;Temp;Humidity;BMP_temperature;BMP_pressure;BME280_temperature;BME280_humidity;BME280_pressure;Samples;Min_cycle;Max_cycle;Signal;HPM_P1;HPM_P2
2021/09/16 00:02:05;;;;;;;5.05;4.50;;;17.30;99.90;;;;;;4993946;28;20026;-73
2021/09/16 00:04:33;;;;;;;4.65;4.35;;;17.50;99.90;;;;;;4994967;28;20029;-74
2021/09/16 00:07:00;;;;;;;5.43;4.30;;;17.50;99.90;;;;;;4995381;28;20026;-73
2021/09/16 00:09:27;;;;;;;4.72;4.15;;;17.70;99.90;;;;;;4994689;28;20398;-73
2021/09/16 00:11:55;;;;;;;4.40;4.00;;;17.50;99.90;;;;;;4994887;28;20053;-73
2021/09/16 00:14:22;;;;;;;4.30;3.90;;;17.10;99.90;;;;;;4994831;28;20520;-74
2021/09/16 00:16:50;;;;;;;3.90;3.60;;;17.20;99.90;;;;;;4994745;28;20453;-73
2021/09/16 00:19:17;;;;;;;4.35;3.95;;;17.10;99.90;;;;;;4994602;28;20022;-74
2021/09/16 00:21:44;;;;;;;4.28;3.88;;;16.90;99.90;;;;;;4995046;28;20029;-73
2021/09/16 00:24:12;;;;;;;4.43;3.70;;;16.80;99.90;;;;;;4994825;28;20094;-73
2021/09/16 00:26:39;;;;;;;4.72;3.67;;;16.90;99.90;;;;;;4994610;28;20045;-73
2021/09/16 00:29:10;;;;;;;4.95;3.50;;;16.80;99.90;;;;;;4994373;28;20022;-75
2021/09/16 00:31:37;;;;;;;3.90;3.50;;;16.60;99.90;;;;;;4993056;28;20057;-73
2021/09/16 00:34:05;;;;;;;3.80;3.20;;;16.60;99.90;;;;;;4994495;28;20499;-74
2021/09/16 00:36:32;;;;;;;4.72;3.47;;;16.60;99.90;;;;;;4994743;28;20026;-73
2021/09/16 00:39:00;;;;;;;4.07;3.60;;;16.50;99.90;;;;;;4994835;28;20451;-77
2021/09/16 00:41:28;;;;;;;5.68;3.53;;;16.70;99.90;;;;;;4994021;28;20033;-73
2021/09/16 00:43:57;;;;;;;3.63;3.05;;;17.00;99.90;;;;;;4994223;28;20026;-73
2021/09/16 00:46:26;;;;;;;4.10;3.25;;;17.60;99.90;;;;;;4994404;28;20023;-73
2021/09/16 00:48:53;;;;;;;5.07;3.00;;;17.80;99.90;;;;;;4993258;28;20030;-74
2021/09/16 00:51:21;;;;;;;3.15;2.90;;;18.00;99.90;;;;;;4994263;28;20519;-73
2021/09/16 00:53:49;;;;;;;5.43;3.25;;;18.20;99.90;;;;;;4993345;28;20034;-74
2021/09/16 00:56:18;;;;;;;3.40;3.10;;;18.30;99.90;;;;;;4992863;28;20105;-73
2021/09/16 00:58:49;;;;;;;3.30;3.00;;;18.30;99.90;;;;;;4993297;28;20089;-73
2021/09/16 01:01:17;;;;;;;3.85;3.42;;;18.20;99.90;;;;;;4994362;28;20014;-73
2021/09/16 01:03:45;;;;;;;4.47;3.20;;;18.20;99.90;;;;;;4992808;28;20034;-74
2021/09/16 01:06:13;;;;;;;3.15;2.90;;;18.40;99.90;;;;;;4992762;28;20050;-73
2021/09/16 01:08:40;;;;;;;3.40;3.20;;;18.20;99.90;;;;;;4993820;28;20344;-73
2021/09/16 01:11:08;;;;;;;3.20;2.88;;;18.40;99.90;;;;;;4994097;28;20041;-72
2021/09/16 01:13:35;;;;;;;3.55;3.00;;;18.40;99.90;;;;;;4993638;28;20038;-73
2021/09/16 01:16:03;;;;;;;5.10;3.20;;;18.30;99.90;;;;;;4993970;28;20048;-72
2021/09/16 01:18:30;;;;;;;3.95;2.80;;;18.30;99.90;;;;;;4993825;28;20391;-72
2021/09/16 01:20:58;;;;;;;3.03;2.83;;;18.20;99.90;;;;;;4993890;28;20046;-71
2021/09/16 01:23:26;;;;;;;4.57;2.78;;;17.70;99.90;;;;;;4993833;28;20075;-73
2021/09/16 01:25:53;;;;;;;3.08;2.88;;;17.50;99.90;;;;;;4992326;28;20026;-73
2021/09/16 01:28:20;;;;;;;2.63;2.50;;;17.20;99.90;;;;;;4992249;28;20443;-74
2021/09/16 01:30:48;;;;;;;3.72;2.65;;;17.20;99.90;;;;;;4993663;28;20521;-73
2021/09/16 01:33:16;;;;;;;3.47;2.70;;;17.20;99.90;;;;;;4992367;28;20149;-73
2021/09/16 01:35:44;;;;;;;2.50;2.40;;;17.00;99.90;;;;;;4993866;28;20080;-72
2021/09/16 01:38:11;;;;;;;6.10;2.78;;;16.70;99.90;;;;;;4993648;28;20019;-73
2021/09/16 01:40:38;;;;;;;2.95;2.65;;;16.90;99.90;;;;;;4993948;28;20072;-73
2021/09/16 01:43:06;;;;;;;3.42;3.03;;;17.10;99.90;;;;;;4993603;28;20034;-73
2021/09/16 01:45:33;;;;;;;3.15;2.85;;;17.60;99.90;;;;;;4994042;28;20475;-73
2021/09/16 01:48:01;;;;;;;3.17;2.90;;;17.50;99.90;;;;;;4993799;28;20031;-73
2021/09/16 01:50:29;;;;;;;5.07;3.00;;;17.50;99.90;;;;;;4993944;28;20058;-74
2021/09/16 01:52:56;;;;;;;3.00;2.70;;;17.60;99.90;;;;;;4994022;28;20050;-72
2021/09/16 01:55:24;;;;;;;3.08;2.70;;;17.60;99.90;;;;;;4997638;28;20022;-72
2021/09/16 01:57:52;;;;;;;4.20;3.00;;;17.80;99.90;;;;;;4997546;28;20031;-71
2021/09/16 02:00:19;;;;;;;2.90;2.70;;;17.80;99.90;;;;;;4995970;28;20054;-70
2021/09/16 02:02:47;;;;;;;2.97;2.70;;;17.70;99.90;;;;;;4995916;28;20026;-73
2021/09/16 02:05:15;;;;;;;3.30;3.00;;;17.60;99.90;;;;;;4995861;28;20110;-73
2021/09/16 02:07:42;;;;;;;3.08;2.88;;;17.50;99.90;;;;;;4997089;28;20027;-73
2021/09/16 02:10:10;;;;;;;2.88;2.67;;;17.70;99.90;;;;;;4997347;28;20357;-73
2021/09/16 02:12:37;;;;;;;2.90;2.70;;;17.70;99.90;;;;;;4997614;28;20026;-72
2021/09/16 02:15:05;;;;;;;3.40;3.20;;;17.70;99.90;;;;;;4997189;28;20442;-73
2021/09/16 02:17:32;;;;;;;3.47;3.20;;;17.80;99.90;;;;;;4996240;28;20026;-73
2021/09/16 02:20:00;;;;;;;2.90;2.70;;;17.70;99.90;;;;;;4997337;28;20015;-73
2021/09/16 02:22:27;;;;;;;2.70;2.60;;;17.70;99.90;;;;;;4997014;28;20026;-73
2021/09/16 02:24:54;;;;;;;2.60;2.50;;;17.80;99.90;;;;;;4995906;28;20026;-74
2021/09/16 02:27:25;;;;;;;2.45;2.35;;;18.00;99.90;;;;;;4995823;28;20026;-73
2021/09/16 02:29:52;;;;;;;2.17;2.00;;;18.30;99.90;;;;;;4997843;28;20026;-74
2021/09/16 02:32:20;;;;;;;3.35;2.20;;;18.90;99.90;;;;;;4995921;28;20022;-74
2021/09/16 02:34:47;;;;;;;2.10;1.83;;;19.10;98.90;;;;;;4997154;28;20031;-73
2021/09/16 02:37:15;;;;;;;2.92;1.92;;;18.90;99.90;;;;;;4996114;28;20030;-74
2021/09/16 02:39:42;;;;;;;2.22;2.03;;;19.30;99.90;;;;;;4996706;28;20033;-74
2021/09/16 02:42:09;;;;;;;2.55;1.92;;;19.20;99.90;;;;;;4995644;28;20434;-74
2021/09/16 02:44:37;;;;;;;2.00;1.90;;;19.20;99.60;;;;;;4995701;28;20113;-74
2021/09/16 02:47:04;;;;;;;3.50;2.03;;;18.90;99.90;;;;;;4996911;28;20030;-74
2021/09/16 02:49:32;;;;;;;2.88;2.40;;;18.40;99.90;;;;;;4997236;28;20031;-74
2021/09/16 02:51:59;;;;;;;6.25;2.78;;;18.10;99.90;;;;;;4996795;28;20023;-74
2021/09/16 02:54:26;;;;;;;3.05;2.13;;;18.20;99.90;;;;;;4996681;28;20033;-74
2021/09/16 02:56:54;;;;;;;2.38;2.17;;;18.60;99.90;;;;;;4996714;28;20023;-73
2021/09/16 02:59:21;;;;;;;3.80;2.28;;;18.60;99.90;;;;;;4995397;28;20061;-74
2021/09/16 03:01:49;;;;;;;3.50;2.40;;;18.40;99.90;;;;;;4994943;28;20022;-74
2021/09/16 03:04:16;;;;;;;4.43;2.28;;;18.20;99.90;;;;;;4994642;28;20374;-75
2021/09/16 03:06:43;;;;;;;4.38;2.40;;;18.30;99.90;;;;;;4996268;28;20070;-75
2021/09/16 03:09:10;;;;;;;2.30;2.08;;;19.00;99.90;;;;;;4995101;28;20502;-75
2021/09/16 03:11:41;;;;;;;3.78;2.10;;;18.70;99.90;;;;;;4996519;28;20030;-75
2021/09/16 03:14:08;;;;;;;3.50;2.42;;;18.20;99.90;;;;;;4996221;28;20026;-75
2021/09/16 03:16:35;;;;;;;4.95;2.70;;;17.90;99.90;;;;;;4994976;28;20030;-75
2021/09/16 03:19:03;;;;;;;3.33;2.55;;;17.70;99.90;;;;;;4994749;28;20482;-75
2021/09/16 03:21:30;;;;;;;3.17;2.35;;;17.60;99.90;;;;;;4994983;28;20076;-74
2021/09/16 03:23:58;;;;;;;2.10;2.00;;;17.60;99.90;;;;;;4996113;28;20025;-75
2021/09/16 03:26:25;;;;;;;2.03;1.90;;;17.80;99.90;;;;;;4995804;28;20030;-75
2021/09/16 03:28:52;;;;;;;3.40;2.17;;;17.60;99.90;;;;;;4996318;28;20379;-74
2021/09/16 03:31:20;;;;;;;3.30;2.40;;;17.40;99.90;;;;;;4995964;28;20023;-73
2021/09/16 03:33:47;;;;;;;2.40;2.10;;;17.30;99.90;;;;;;4996179;28;20093;-74
2021/09/16 03:36:14;;;;;;;2.47;1.80;;;17.10;99.90;;;;;;4995693;28;20045;-74
2021/09/16 03:38:42;;;;;;;2.90;2.20;;;17.10;99.90;;;;;;4995277;28;20022;-73
2021/09/16 03:41:10;;;;;;;2.13;1.98;;;17.40;99.90;;;;;;4993988;28;20104;-73
2021/09/16 03:43:37;;;;;;;2.40;2.20;;;17.90;99.90;;;;;;4995181;28;20025;-73
2021/09/16 03:46:04;;;;;;;2.17;2.08;;;18.00;99.90;;;;;;4995188;28;20034;-72
2021/09/16 03:48:32;;;;;;;2.85;2.20;;;17.80;99.90;;;;;;4995068;28;20368;-73
2021/09/16 03:50:59;;;;;;;2.50;2.40;;;17.40;99.90;;;;;;4995140;28;20024;-73
2021/09/16 03:53:26;;;;;;;3.42;2.20;;;17.10;99.90;;;;;;4993787;28;20029;-74
2021/09/16 03:55:54;;;;;;;2.50;2.30;;;17.30;99.90;;;;;;4994878;28;20038;-73
2021/09/16 03:58:21;;;;;;;2.83;2.30;;;17.40;99.90;;;;;;4993771;28;20023;-73
2021/09/16 04:00:49;;;;;;;3.92;2.40;;;17.50;99.90;;;;;;4993928;28;20375;-73
2021/09/16 04:03:16;;;;;;;2.58;2.38;;;17.70;99.90;;;;;;4994118;28;20436;-74
2021/09/16 04:05:43;;;;;;;2.33;2.20;;;17.40;99.90;;;;;;4995219;28;20113;-73
2021/09/16 04:08:11;;;;;;;3.05;2.35;;;17.50;99.90;;;;;;4993465;28;20026;-73
2021/09/16 04:10:38;;;;;;;2.35;2.15;;;17.60;99.90;;;;;;4993980;28;20121;-72
2021/09/16 04:13:06;;;;;;;2.20;2.10;;;17.60;99.90;;;;;;4993722;28;20387;-73
2021/09/16 04:15:34;;;;;;;2.60;2.40;;;18.10;99.90;;;;;;4993890;28;20026;-73
2021/09/16 04:18:01;;;;;;;2.97;2.10;;;18.20;99.90;;;;;;4994748;28;20015;-73
2021/09/16 04:20:29;;;;;;;2.30;2.20;;;18.20;99.90;;;;;;4994882;28;20022;-73
2021/09/16 04:22:56;;;;;;;2.22;2.00;;;18.40;99.90;;;;;;4993562;28;20102;-73
2021/09/16 04:25:24;;;;;;;2.33;2.13;;;18.50;99.90;;;;;;4993736;28;20053;-73
2021/09/16 04:27:51;;;;;;;2.78;2.20;;;18.50;99.90;;;;;;4994995;28;20041;-73
2021/09/16 04:30:19;;;;;;;2.53;2.10;;;18.40;99.90;;;;;;4993372;28;20034;-73
2021/09/16 04:32:46;;;;;;;2.97;2.00;;;18.30;99.90;;;;;;4995006;28;20106;-73
2021/09/16 04:35:14;;;;;;;2.72;1.70;;;18.30;99.90;;;;;;4994675;28;20027;-73
2021/09/16 04:37:41;;;;;;;1.73;1.58;;;18.40;99.90;;;;;;4994638;28;20482;-73
2021/09/16 04:40:09;;;;;;;2.28;1.45;;;18.40;99.90;;;;;;4992982;28;20065;-73
2021/09/16 04:42:36;;;;;;;2.40;1.80;;;18.30;99.90;;;;;;4992933;28;20058;-73
2021/09/16 04:45:04;;;;;;;3.08;2.00;;;18.30;99.90;;;;;;4994415;28;20030;-73
2021/09/16 04:47:31;;;;;;;2.30;2.20;;;18.20;99.90;;;;;;4993278;28;20022;-73
2021/09/16 04:49:58;;;;;;;2.75;2.55;;;18.40;99.90;;;;;;4993226;28;20534;-74
2021/09/16 04:52:27;;;;;;;2.47;2.28;;;18.30;99.90;;;;;;4993086;28;20026;-74
2021/09/16 04:54:54;;;;;;;2.20;2.10;;;18.10;99.90;;;;;;4992526;28;20026;-76
2021/09/16 04:57:22;;;;;;;2.20;2.10;;;18.10;99.90;;;;;;4992762;28;20550;-74
2021/09/16 04:59:49;;;;;;;2.65;2.47;;;18.30;99.90;;;;;;4992760;28;20019;-74
2021/09/16 05:02:17;;;;;;;2.15;2.08;;;18.10;99.90;;;;;;4992841;28;20019;-75
2021/09/16 05:04:44;;;;;;;2.33;2.05;;;18.00;99.90;;;;;;4992430;28;20553;-75
2021/09/16 05:07:12;;;;;;;2.83;2.30;;;18.00;99.90;;;;;;4992496;28;20026;-75
2021/09/16 05:09:39;;;;;;;2.10;1.95;;;17.80;99.90;;;;;;4993587;28;20050;-74
2021/09/16 05:12:07;;;;;;;3.28;2.38;;;17.60;99.90;;;;;;4993662;28;20033;-75
2021/09/16 05:14:34;;;;;;;2.90;2.10;;;17.70;99.90;;;;;;4992409;28;20037;-74
2021/09/16 05:17:01;;;;;;;2.45;2.25;;;17.80;99.90;;;;;;4993558;28;20058;-74
2021/09/16 05:19:29;;;;;;;2.08;1.98;;;17.90;99.90;;;;;;4992367;28;20022;-74
2021/09/16 05:21:56;;;;;;;2.47;2.10;;;17.80;99.90;;;;;;4976377;28;20035;-73
2021/09/16 05:24:24;;;;;;;3.38;2.00;;;17.90;99.90;;;;;;4993868;28;20022;-73
2021/09/16 05:26:51;;;;;;;2.13;2.03;;;17.90;99.90;;;;;;4993484;28;20034;-73
2021/09/16 05:29:18;;;;;;;2.25;2.05;;;17.90;99.90;;;;;;4991775;28;20027;-73
2021/09/16 05:31:46;;;;;;;3.00;2.10;;;17.70;99.90;;;;;;4992337;28;20035;-73
2021/09/16 05:34:13;;;;;;;2.20;2.10;;;17.40;99.90;;;;;;4992150;28;20037;-73
2021/09/16 05:36:41;;;;;;;2.50;2.40;;;17.40;99.90;;;;;;4993467;28;20034;-73
2021/09/16 05:39:09;;;;;;;2.50;2.40;;;17.30;99.90;;;;;;4993431;28;20034;-72
2021/09/16 05:41:36;;;;;;;2.78;2.60;;;17.30;99.90;;;;;;4992192;28;20023;-73
2021/09/16 05:44:04;;;;;;;2.60;2.40;;;17.20;99.90;;;;;;4992150;28;20037;-75
2021/09/16 05:46:33;;;;;;;3.55;2.83;;;17.20;99.90;;;;;;4993291;28;20060;-73
2021/09/16 05:49:00;;;;;;;2.20;1.80;;;17.30;99.90;;;;;;4993669;28;20085;-73
2021/09/16 05:51:28;;;;;;;2.00;1.90;;;17.20;99.90;;;;;;4993412;28;20033;-72
2021/09/16 05:53:55;;;;;;;2.08;1.80;;;17.30;99.90;;;;;;4993350;28;20034;-73
2021/09/16 05:56:23;;;;;;;2.00;1.90;;;17.30;99.90;;;;;;4992112;28;20030;-74
2021/09/16 05:58:50;;;;;;;2.17;2.08;;;17.20;99.90;;;;;;4992047;28;20026;-73
2021/09/16 06:01:17;;;;;;;1.90;1.80;;;17.30;99.90;;;;;;4992128;28;20029;-73
2021/09/16 06:03:45;;;;;;;2.00;1.90;;;17.40;99.90;;;;;;4991928;28;20026;-73
2021/09/16 06:06:12;;;;;;;2.10;1.90;;;17.30;99.90;;;;;;4993409;28;20022;-73
2021/09/16 06:08:40;;;;;;;2.95;2.08;;;17.30;99.90;;;;;;4991795;28;20048;-73
2021/09/16 06:11:07;;;;;;;2.08;1.98;;;17.10;99.90;;;;;;4993324;28;20565;-73
2021/09/16 06:16:56;;;;;;;3.28;2.47;;;17.10;99.90;;;;;;4993097;28;20066;-73
2021/09/16 06:19:24;;;;;;;4.70;2.47;;;17.10;99.90;;;;;;4993202;28;20076;-72
2021/09/16 06:21:51;;;;;;;2.50;2.40;;;17.00;99.90;;;;;;4993505;28;20030;-73
2021/09/16 06:24:19;;;;;;;2.70;2.50;;;17.00;99.90;;;;;;4993080;28;20014;-74
2021/09/16 06:26:46;;;;;;;2.60;2.40;;;16.80;99.90;;;;;;4993241;28;20018;-72
2021/09/16 06:29:13;;;;;;;2.35;2.15;;;16.70;99.90;;;;;;4991727;28;20113;-73
2021/09/16 06:31:41;;;;;;;2.28;2.17;;;16.50;99.90;;;;;;4992935;28;20057;-73
2021/09/16 06:34:08;;;;;;;2.03;1.92;;;16.40;99.90;;;;;;4991735;28;20041;-73
2021/09/16 06:36:36;;;;;;;2.25;2.15;;;16.30;99.90;;;;;;4991565;28;20541;-73
2021/09/16 06:39:03;;;;;;;2.17;2.08;;;16.20;99.90;;;;;;4991663;28;20100;-72
2021/09/16 06:41:31;;;;;;;2.30;2.10;;;16.10;99.90;;;;;;4995781;28;20059;-73
2021/09/16 06:43:58;;;;;;;2.40;2.20;;;16.20;99.90;;;;;;4995049;28;20023;-72
2021/09/16 06:46:26;;;;;;;4.13;2.03;;;16.00;99.90;;;;;;4996516;28;20031;-72
2021/09/16 06:48:53;;;;;;;4.70;2.38;;;16.00;99.90;;;;;;4996255;28;20050;-73
2021/09/16 06:51:20;;;;;;;2.08;1.90;;;15.90;99.90;;;;;;4996288;28;20391;-73
2021/09/16 06:53:48;;;;;;;3.63;2.20;;;15.80;99.90;;;;;;4994884;28;20543;-73
2021/09/16 06:56:15;;;;;;;2.80;2.10;;;15.80;99.90;;;;;;4994803;28;20073;-73
2021/09/16 06:58:42;;;;;;;2.40;2.20;;;15.70;99.90;;;;;;4994874;28;20031;-73
2021/09/16 07:01:10;;;;;;;3.53;2.78;;;15.70;99.90;;;;;;4996068;28;20093;-73
2021/09/16 07:03:37;;;;;;;2.72;2.53;;;15.60;99.90;;;;;;4995972;28;20507;-72
2021/09/16 07:06:04;;;;;;;2.60;2.40;;;15.50;99.90;;;;;;4994843;28;20040;-73
2021/09/16 07:08:32;;;;;;;2.80;2.60;;;15.40;99.90;;;;;;4995779;28;20054;-73
2021/09/16 07:11:00;;;;;;;2.80;2.70;;;15.30;99.90;;;;;;4994797;28;20049;-73
2021/09/16 07:13:27;;;;;;;2.80;2.60;;;15.20;99.90;;;;;;4995939;28;20026;-72
2021/09/16 07:15:54;;;;;;;3.03;2.90;;;15.10;99.90;;;;;;4994490;28;20128;-73
2021/09/16 07:18:22;;;;;;;4.15;3.65;;;15.00;99.90;;;;;;4994803;28;20061;-72
2021/09/16 07:20:49;;;;;;;2.80;2.60;;;14.90;99.90;;;;;;4995852;28;20049;-71
2021/09/16 07:23:16;;;;;;;4.05;2.50;;;14.90;99.90;;;;;;4994357;28;20435;-72
2021/09/16 07:25:44;;;;;;;2.85;2.60;;;14.70;99.90;;;;;;4995748;28;20026;-72
2021/09/16 07:28:11;;;;;;;3.30;2.90;;;14.60;99.90;;;;;;4995756;28;20200;-72
2021/09/16 07:30:38;;;;;;;2.80;2.70;;;14.50;99.90;;;;;;4995525;28;20026;-72
2021/09/16 07:33:06;;;;;;;3.03;2.83;;;14.50;99.90;;;;;;4994325;28;20145;-72
2021/09/16 07:35:33;;;;;;;3.10;2.90;;;14.40;99.90;;;;;;4994207;28;20409;-72
2021/09/16 07:38:00;;;;;;;3.70;3.50;;;14.30;99.90;;;;;;4994180;28;20317;-72
2021/09/16 07:40:28;;;;;;;3.70;3.40;;;14.30;99.90;;;;;;4995500;28;20022;-72
2021/09/16 07:42:55;;;;;;;3.60;3.30;;;14.20;99.90;;;;;;4995383;28;20566;-72
2021/09/16 07:45:22;;;;;;;3.67;3.47;;;14.10;99.90;;;;;;4995274;28;20494;-73
2021/09/16 07:47:50;;;;;;;3.83;3.20;;;14.00;99.90;;;;;;4995395;28;20503;-72
2021/09/16 07:50:17;;;;;;;3.70;3.40;;;14.00;99.90;;;;;;4993642;28;20026;-72
2021/09/16 07:52:44;;;;;;;4.47;3.80;;;14.00;99.90;;;;;;4993590;28;20420;-72
2021/09/16 07:55:12;;;;;;;4.18;3.80;;;14.00;99.90;;;;;;4993742;28;20054;-72
2021/09/16 07:57:39;;;;;;;3.75;3.55;;;13.90;99.90;;;;;;4993763;28;20038;-72
2021/09/16 08:00:07;;;;;;;4.47;4.05;;;13.90;99.90;;;;;;4994893;28;20048;-71
2021/09/16 08:02:46;;;;;;;4.35;3.80;;;13.80;99.90;;;;;;4993669;28;20030;-71
2021/09/16 08:05:15;;;;;;;4.05;3.85;;;13.70;99.90;;;;;;4994955;28;20026;-73
2021/09/16 08:07:43;;;;;;;4.70;4.32;;;13.70;99.90;;;;;;4993576;28;20435;-72
2021/09/16 08:10:11;;;;;;;5.78;4.60;;;13.60;99.90;;;;;;4993328;28;20073;-72
2021/09/16 08:12:38;;;;;;;7.57;5.20;;;13.50;99.90;;;;;;4994837;28;20117;-72
2021/09/16 08:15:07;;;;;;;6.82;4.93;;;13.50;99.90;;;;;;4994859;28;20427;-72
2021/09/16 08:17:34;;;;;;;5.57;4.85;;;13.40;99.90;;;;;;4994757;28;20030;-75
2021/09/16 08:20:03;;;;;;;6.00;4.30;;;13.40;99.90;;;;;;4993251;28;20033;-75
2021/09/16 08:22:30;;;;;;;6.75;5.32;;;13.30;99.90;;;;;;4994620;28;20105;-72
2021/09/16 08:24:58;;;;;;;6.55;5.32;;;13.30;99.90;;;;;;4993307;28;20033;-73
2021/09/16 08:27:26;;;;;;;8.40;6.10;;;13.30;99.90;;;;;;4993210;28;20399;-72
2021/09/16 08:29:53;;;;;;;11.65;6.20;;;13.30;99.90;;;;;;4994472;28;20018;-73
2021/09/16 08:32:21;;;;;;;30.92;27.80;;;13.30;99.90;;;;;;4994374;28;20053;-72
2021/09/16 08:34:48;;;;;;;11.45;9.90;;;13.20;99.90;;;;;;4994499;28;20019;-72
2021/09/16 08:37:15;;;;;;;6.38;5.80;;;13.20;99.90;;;;;;4994439;28;20026;-73
2021/09/16 08:39:43;;;;;;;11.35;6.95;;;13.20;99.90;;;;;;4994245;28;20097;-70
2021/09/16 08:42:11;;;;;;;17.63;8.52;;;13.10;99.90;;;;;;4994236;28;20102;-72
2021/09/16 08:44:40;;;;;;;21.73;8.48;;;13.10;99.90;;;;;;4993059;28;20046;-71
2021/09/16 08:47:07;;;;;;;20.48;9.48;;;13.10;99.90;;;;;;4992780;28;20023;-71
2021/09/16 08:49:35;;;;;;;13.82;7.60;;;13.00;99.90;;;;;;4994008;28;20105;-71
2021/09/16 08:52:02;;;;;;;9.27;6.82;;;13.00;99.90;;;;;;4994028;28;20022;-72
2021/09/16 08:54:30;;;;;;;13.38;7.85;;;13.00;99.90;;;;;;4992654;28;20042;-72
2021/09/16 08:56:59;;;;;;;26.70;9.38;;;13.00;99.90;;;;;;4992480;28;20037;-72
2021/09/16 08:59:27;;;;;;;12.93;8.10;;;13.00;99.90;;;;;;4993984;28;20454;-72
2021/09/16 09:01:54;;;;;;;14.55;8.52;;;13.00;99.90;;;;;;4993747;28;20460;-72
2021/09/16 09:04:22;;;;;;;11.45;8.48;;;12.90;99.90;;;;;;4992054;28;20020;-71
2021/09/16 09:06:59;;;;;;;8.48;7.60;;;12.90;99.90;;;;;;4993816;28;20502;-71
2021/09/16 09:09:27;;;;;;;14.95;8.88;;;12.90;99.90;;;;;;4992484;28;20129;-70
2021/09/16 09:12:14;;;;;;;18.38;8.50;;;12.80;99.90;;;;;;4992286;28;20030;-70
2021/09/16 09:14:45;;;;;;;23.65;10.65;;;12.70;99.90;;;;;;4992517;28;20050;-72
2021/09/16 09:17:21;;;;;;;17.77;9.70;;;12.70;99.90;;;;;;4992352;28;20527;-72
2021/09/16 09:19:53;;;;;;;9.70;8.80;;;12.60;99.90;;;;;;4992456;28;20027;-70
2021/09/16 09:22:36;;;;;;;9.82;8.75;;;12.60;99.90;;;;;;4993667;28;20077;-72
2021/09/16 09:25:12;;;;;;;14.88;10.23;;;12.60;99.90;;;;;;4993572;28;20018;-72
2021/09/16 09:27:48;;;;;;;17.80;10.50;;;12.60;99.90;;;;;;4993532;28;20022;-71
2021/09/16 09:30:30;;;;;;;15.00;10.40;;;12.50;99.90;;;;;;4992411;28;20092;-72
2021/09/16 09:33:00;;;;;;;29.30;12.20;;;12.50;99.90;;;;;;4992503;28;20068;-73
2021/09/16 09:35:36;;;;;;;10.95;8.88;;;12.50;99.90;;;;;;4993346;28;20034;-73
2021/09/16 09:38:21;;;;;;;11.38;8.52;;;12.40;99.90;;;;;;4992211;28;20466;-73
2021/09/16 09:40:51;;;;;;;9.85;8.80;;;12.40;99.90;;;;;;4992284;28;20108;-72
2021/09/16 09:43:29;;;;;;;11.68;9.15;;;12.30;99.90;;;;;;4992363;28;20108;-72
2021/09/16 09:46:04;;;;;;;8.52;7.72;;;12.30;99.90;;;;;;4993512;28;20081;-72
2021/09/16 09:48:35;;;;;;;11.15;8.90;;;12.30;99.90;;;;;;4993469;28;20088;-73
2021/09/16 09:51:05;;;;;;;14.10;9.25;;;12.30;99.90;;;;;;4993568;28;20029;-74
2021/09/16 09:53:45;;;;;;;8.50;7.80;;;12.30;99.90;;;;;;4992116;28;20035;-72
2021/09/16 09:56:18;;;;;;;13.70;9.25;;;12.30;99.90;;;;;;4991998;28;20038;-74
2021/09/16 09:58:47;;;;;;;16.17;10.50;;;12.30;99.90;;;;;;4992089;28;20391;-72
2021/09/16 10:01:31;;;;;;;12.27;11.18;;;12.30;99.90;;;;;;4993224;28;20479;-72
2021/09/16 10:03:59;;;;;;;38.35;15.80;;;12.20;99.90;;;;;;4992978;28;20105;-73
2021/09/16 10:06:36;;;;;;;30.20;16.42;;;12.40;99.90;;;;;;4991930;28;20395;-74
2021/09/16 10:09:13;;;;;;;14.85;13.02;;;12.60;99.90;;;;;;4993096;28;20492;-74
2021/09/16 10:11:50;;;;;;;14.60;13.13;;;12.60;99.90;;;;;;4992021;28;20729;-74
2021/09/16 10:14:18;;;;;;;13.55;11.48;;;12.50;99.90;;;;;;4994263;28;20019;-74
2021/09/16 10:16:48;;;;;;;12.98;11.77;;;12.50;99.90;;;;;;4995503;28;20122;-74
2021/09/16 10:19:16;;;;;;;10.85;9.18;;;12.50;99.90;;;;;;4996803;28;20061;-74
2021/09/16 10:21:44;;;;;;;10.88;9.80;;;12.50;99.90;;;;;;4996791;28;20018;-74
2021/09/16 10:24:16;;;;;;;11.55;10.52;;;12.60;99.90;;;;;;4995384;28;20030;-74
2021/09/16 10:26:49;;;;;;;13.95;12.10;;;12.70;99.90;;;;;;4995251;28;20029;-72
2021/09/16 10:29:28;;;;;;;14.55;13.15;;;12.70;99.90;;;;;;4996765;28;20413;-74
2021/09/16 10:32:18;;;;;;;10.73;9.88;;;12.80;99.90;;;;;;4995163;28;20053;-74
2021/09/16 10:34:48;;;;;;;11.40;10.40;;;12.90;99.90;;;;;;4990022;28;20038;-72
2021/09/16 10:37:19;;;;;;;11.52;10.52;;;13.00;99.90;;;;;;4995095;28;20026;-74
2021/09/16 10:39:49;;;;;;;10.05;9.25;;;13.00;99.90;;;;;;4996400;28;20057;-73
2021/09/16 10:42:18;;;;;;;9.40;8.70;;;13.00;99.90;;;;;;4995090;28;20053;-73
2021/09/16 10:45:04;;;;;;;10.10;9.20;;;13.10;99.90;;;;;;4994949;28;20030;-71
2021/09/16 10:47:31;;;;;;;11.23;10.10;;;13.10;99.90;;;;;;4995068;28;20096;-72
2021/09/16 10:50:19;;;;;;;11.88;10.68;;;13.10;99.90;;;;;;4994910;28;20027;-72
2021/09/16 10:52:47;;;;;;;10.02;9.13;;;13.10;99.90;;;;;;4996076;28;20036;-73
2021/09/16 10:55:34;;;;;;;10.98;10.00;;;13.00;99.90;;;;;;4994819;28;20065;-73
2021/09/16 10:58:24;;;;;;;11.40;10.35;;;12.90;99.90;;;;;;4994606;28;20085;-74
2021/09/16 11:00:53;;;;;;;10.55;9.70;;;12.80;99.90;;;;;;4996076;28;20420;-74
2021/09/16 11:03:21;;;;;;;13.23;11.82;;;12.80;99.90;;;;;;4994853;28;20053;-74
2021/09/16 11:05:51;;;;;;;10.98;9.98;;;12.90;99.90;;;;;;4994631;28;20503;-73
2021/09/16 11:08:20;;;;;;;9.93;9.13;;;12.90;99.90;;;;;;4994803;28;20034;-73
2021/09/16 11:10:49;;;;;;;9.68;9.00;;;12.90;99.90;;;;;;4995859;28;20101;-72
2021/09/16 11:13:41;;;;;;;10.73;9.73;;;12.90;99.90;;;;;;4995835;28;20026;-73
2021/09/16 11:16:09;;;;;;;10.48;9.57;;;12.90;99.90;;;;;;4994428;28;20031;-74
2021/09/16 11:18:38;;;;;;;11.40;10.27;;;12.90;99.90;;;;;;4994278;28;20113;-71
2021/09/16 11:21:08;;;;;;;11.13;10.02;;;12.90;99.90;;;;;;4994692;28;20026;-73
2021/09/16 11:23:42;;;;;;;10.20;9.40;;;12.80;99.90;;;;;;4994390;28;20113;-73
2021/09/16 11:26:21;;;;;;;11.48;10.50;;;12.80;99.90;;;;;;4993523;28;20061;-72
2021/09/16 11:29:08;;;;;;;10.88;9.98;;;12.80;99.90;;;;;;4995716;28;20022;-72
2021/09/16 11:31:36;;;;;;;10.52;9.60;;;12.70;99.90;;;;;;4995525;28;20081;-72
2021/09/16 11:34:12;;;;;;;10.27;9.48;;;12.70;99.90;;;;;;4995544;28;20027;-73
2021/09/16 11:37:05;;;;;;;10.82;9.93;;;12.60;99.90;;;;;;4993988;28;20037;-73
2021/09/16 11:39:32;;;;;;;10.68;9.77;;;12.60;99.90;;;;;;4995428;28;20045;-73
2021/09/16 11:42:30;;;;;;;10.63;9.70;;;12.50;99.90;;;;;;4995234;28;20488;-73
2021/09/16 11:45:05;;;;;;;9.65;8.95;;;12.50;99.90;;;;;;4990900;28;20039;-73
2021/09/16 11:47:39;;;;;;;10.85;9.73;;;12.50;99.90;;;;;;4995176;28;20072;-74
2021/09/16 11:50:21;;;;;;;12.13;9.32;;;12.40;99.90;;;;;;4994011;28;20093;-73
2021/09/16 11:52:58;;;;;;;9.63;8.95;;;12.40;99.90;;;;;;4995196;28;20136;-72
2021/09/16 11:55:27;;;;;;;10.65;9.57;;;12.40;99.90;;;;;;4993730;28;20066;-72
2021/09/16 11:58:11;;;;;;;10.05;9.35;;;12.30;99.90;;;;;;4995332;28;20028;-73
2021/09/16 12:00:45;;;;;;;9.88;8.98;;;12.30;99.90;;;;;;4993684;28;20109;-73
2021/09/16 12:03:18;;;;;;;9.75;8.88;;;12.30;99.90;;;;;;4995007;28;20053;-73
2021/09/16 12:05:51;;;;;;;9.88;9.00;;;12.30;99.90;;;;;;4993524;28;20509;-74
2021/09/16 12:08:31;;;;;;;10.20;9.40;;;12.40;99.90;;;;;;4994646;28;20029;-73
2021/09/16 12:11:26;;;;;;;10.10;9.30;;;12.40;99.90;;;;;;4993553;28;20113;-73
2021/09/16 12:14:00;;;;;;;9.70;9.10;;;12.40;99.90;;;;;;4994794;28;20030;-72
2021/09/16 12:16:30;;;;;;;9.55;8.80;;;12.40;99.90;;;;;;4993380;28;20041;-73
2021/09/16 12:19:04;;;;;;;9.10;8.50;;;12.50;99.90;;;;;;4994673;28;20105;-72
2021/09/16 12:21:46;;;;;;;9.35;8.65;;;12.50;99.90;;;;;;4993839;28;20660;-74
2021/09/16 12:24:18;;;;;;;8.85;8.27;;;12.50;99.90;;;;;;4994585;28;20049;-72
2021/09/16 12:26:48;;;;;;;8.65;8.13;;;12.50;99.90;;;;;;4993251;28;20034;-73
2021/09/16 12:29:24;;;;;;;10.00;9.10;;;12.50;99.90;;;;;;4993189;28;20027;-73
2021/09/16 12:32:04;;;;;;;9.07;8.40;;;12.50;99.90;;;;;;4993156;28;20038;-73
2021/09/16 12:34:36;;;;;;;9.07;8.38;;;12.50;99.90;;;;;;4993181;28;20096;-73
2021/09/16 12:37:09;;;;;;;9.35;8.48;;;12.40;99.90;;;;;;4994273;28;20510;-73
2021/09/16 12:39:52;;;;;;;8.38;7.80;;;12.50;99.90;;;;;;4994235;28;20026;-72
2021/09/16 12:42:34;;;;;;;8.95;8.07;;;12.50;99.90;;;;;;4994233;28;20471;-74
2021/09/16 12:45:10;;;;;;;9.35;8.65;;;12.50;99.90;;;;;;4993263;28;20022;-74
2021/09/16 12:47:50;;;;;;;8.88;8.18;;;12.50;99.90;;;;;;4993061;28;20456;-73
2021/09/16 12:50:19;;;;;;;9.18;8.57;;;12.50;99.90;;;;;;4992964;28;20022;-73
2021/09/16 12:52:47;;;;;;;8.63;8.02;;;12.60;99.90;;;;;;4994068;28;20026;-74
2021/09/16 12:55:15;;;;;;;9.23;8.45;;;12.60;99.90;;;;;;4993922;28;20183;-73
2021/09/16 12:57:45;;;;;;;14.05;9.30;;;12.60;99.90;;;;;;4992738;28;20029;-73
2021/09/16 13:00:16;;;;;;;10.50;9.52;;;12.60;99.90;;;;;;4992703;28;20053;-74